sensor_id;sensor_type;location;lat;lon;timestamp;P1;durP1;ratioP1;P2;durP2;ratioP2
12088;SDS011;6107;49.078;8.578;2022-09-09T00:04:40;6.07;;;2.00;;
12088;SDS011;6107;49.078;8.578;2022-09-09T00:10:08;4.57;;;1.90;;
12088;SDS011;6107;49.078;8.578;2022-09-09T00:21:33;3.73;;;1.60;;
12088;SDS011;6107;49.078;8.578;2022-09-09T00:27:19;5.20;;;1.93;;
12088;SDS011;6107;49.078;8.578;2022-09-09T00:29:51;2.50;;;1.70;;
12088;SDS011;6107;49.078;8.578;2022-09-09T00:32:21;2.80;;;1.37;;
12088;SDS011;6107;49.078;8.578;2022-09-09T00:34:54;7.40;;;2.17;;
12088;SDS011;6107;49.078;8.578;2022-09-09T00:37:41;7.13;;;1.63;;
12088;SDS011;6107;49.078;8.578;2022-09-09T00:42:48;2.50;;;1.77;;
12088;SDS011;6107;49.078;8.578;2022-09-09T00:45:46;3.47;;;1.70;;
12088;SDS011;6107;49.078;8.578;2022-09-09T00:48:38;8.70;;;2.00;;
12088;SDS011;6107;49.078;8.578;2022-09-09T00:56:51;4.07;;;1.53;;
12088;SDS011;6107;49.078;8.578;2022-09-09T00:59:32;3.73;;;1.50;;
12088;SDS011;6107;49.078;8.578;2022-09-09T01:02:59;3.43;;;1.50;;
12088;SDS011;6107;49.078;8.578;2022-09-09T01:05:17;5.63;;;1.33;;
12088;SDS011;6107;49.078;8.578;2022-09-09T01:07:49;2.43;;;1.40;;
12088;SDS011;6107;49.078;8.578;2022-09-09T01:10:21;2.80;;;1.30;;
12088;SDS011;6107;49.078;8.578;2022-09-09T01:12:58;3.53;;;1.50;;
12088;SDS011;6107;49.078;8.578;2022-09-09T01:15:30;5.03;;;1.80;;
12088;SDS011;6107;49.078;8.578;2022-09-09T01:20:49;3.80;;;1.77;;
12088;SDS011;6107;49.078;8.578;2022-09-09T01:23:38;6.17;;;1.90;;
12088;SDS011;6107;49.078;8.578;2022-09-09T01:26:26;4.20;;;1.60;;
12088;SDS011;6107;49.078;8.578;2022-09-09T01:29:09;3.57;;;1.70;;
12088;SDS011;6107;49.078;8.578;2022-09-09T01:31:56;5.87;;;1.53;;
12088;SDS011;6107;49.078;8.578;2022-09-09T01:34:24;3.53;;;1.30;;
12088;SDS011;6107;49.078;8.578;2022-09-09T01:37:08;3.37;;;1.77;;
12088;SDS011;6107;49.078;8.578;2022-09-09T01:39:35;2.27;;;1.37;;
12088;SDS011;6107;49.078;8.578;2022-09-09T01:42:03;5.83;;;2.00;;
12088;SDS011;6107;49.078;8.578;2022-09-09T01:44:31;2.00;;;1.13;;
12088;SDS011;6107;49.078;8.578;2022-09-09T01:46:57;3.03;;;1.43;;
12088;SDS011;6107;49.078;8.578;2022-09-09T01:49:23;5.53;;;1.50;;
12088;SDS011;6107;49.078;8.578;2022-09-09T01:51:50;5.53;;;1.60;;
12088;SDS011;6107;49.078;8.578;2022-09-09T01:54:19;3.43;;;1.43;;
12088;SDS011;6107;49.078;8.578;2022-09-09T01:57:06;3.23;;;1.13;;
12088;SDS011;6107;49.078;8.578;2022-09-09T02:02:26;4.80;;;1.37;;
12088;SDS011;6107;49.078;8.578;2022-09-09T02:05:10;3.07;;;1.40;;
12088;SDS011;6107;49.078;8.578;2022-09-09T02:07:50;3.90;;;1.23;;
12088;SDS011;6107;49.078;8.578;2022-09-09T02:10:42;2.27;;;1.23;;
12088;SDS011;6107;49.078;8.578;2022-09-09T02:13:24;4.83;;;1.23;;
12088;SDS011;6107;49.078;8.578;2022-09-09T02:15:52;4.83;;;1.20;;
12088;SDS011;6107;49.078;8.578;2022-09-09T02:18:35;2.57;;;1.37;;
12088;SDS011;6107;49.078;8.578;2022-09-09T02:21:07;3.90;;;1.30;;
12088;SDS011;6107;49.078;8.578;2022-09-09T02:23:36;6.97;;;1.37;;
12088;SDS011;6107;49.078;8.578;2022-09-09T02:26:04;1.37;;;1.00;;
12088;SDS011;6107;49.078;8.578;2022-09-09T02:28:32;3.80;;;1.10;;
12088;SDS011;6107;49.078;8.578;2022-09-09T02:30:59;2.80;;;0.90;;
12088;SDS011;6107;49.078;8.578;2022-09-09T02:33:26;2.03;;;0.97;;
12088;SDS011;6107;49.078;8.578;2022-09-09T02:35:55;1.33;;;0.93;;
12088;SDS011;6107;49.078;8.578;2022-09-09T02:38:26;2.33;;;0.90;;
12088;SDS011;6107;49.078;8.578;2022-09-09T02:40:57;1.43;;;0.73;;
12088;SDS011;6107;49.078;8.578;2022-09-09T02:43:23;1.70;;;0.70;;
12088;SDS011;6107;49.078;8.578;2022-09-09T02:45:56;1.23;;;0.70;;
12088;SDS011;6107;49.078;8.578;2022-09-09T02:48:59;4.83;;;0.93;;
12088;SDS011;6107;49.078;8.578;2022-09-09T02:56:55;0.77;;;0.60;;
12088;SDS011;6107;49.078;8.578;2022-09-09T02:59:26;0.93;;;0.80;;
12088;SDS011;6107;49.078;8.578;2022-09-09T03:01:52;0.90;;;0.60;;
12088;SDS011;6107;49.078;8.578;2022-09-09T03:04:18;1.43;;;0.70;;
12088;SDS011;6107;49.078;8.578;2022-09-09T03:06:44;2.10;;;1.00;;
12088;SDS011;6107;49.078;8.578;2022-09-09T03:09:09;1.00;;;0.57;;
12088;SDS011;6107;49.078;8.578;2022-09-09T03:11:35;2.67;;;0.70;;
12088;SDS011;6107;49.078;8.578;2022-09-09T03:14:01;1.83;;;0.73;;
12088;SDS011;6107;49.078;8.578;2022-09-09T03:16:27;2.20;;;0.63;;
12088;SDS011;6107;49.078;8.578;2022-09-09T03:18:52;1.50;;;0.80;;
12088;SDS011;6107;49.078;8.578;2022-09-09T03:21:18;4.30;;;0.70;;
12088;SDS011;6107;49.078;8.578;2022-09-09T03:23:43;0.90;;;0.53;;
12088;SDS011;6107;49.078;8.578;2022-09-09T03:26:10;2.50;;;0.50;;
12088;SDS011;6107;49.078;8.578;2022-09-09T03:28:35;1.83;;;1.00;;
12088;SDS011;6107;49.078;8.578;2022-09-09T03:31:01;1.23;;;0.67;;
12088;SDS011;6107;49.078;8.578;2022-09-09T03:33:29;0.70;;;0.70;;
12088;SDS011;6107;49.078;8.578;2022-09-09T03:35:55;1.27;;;0.90;;
12088;SDS011;6107;49.078;8.578;2022-09-09T03:38:22;1.37;;;0.70;;
12088;SDS011;6107;49.078;8.578;2022-09-09T03:40:52;1.97;;;0.60;;
12088;SDS011;6107;49.078;8.578;2022-09-09T03:43:20;3.90;;;0.87;;
12088;SDS011;6107;49.078;8.578;2022-09-09T03:45:46;1.70;;;0.87;;
12088;SDS011;6107;49.078;8.578;2022-09-09T03:48:16;2.00;;;0.77;;
12088;SDS011;6107;49.078;8.578;2022-09-09T03:50:46;2.30;;;0.80;;
12088;SDS011;6107;49.078;8.578;2022-09-09T03:53:22;2.80;;;0.80;;
12088;SDS011;6107;49.078;8.578;2022-09-09T03:55:51;7.60;;;0.90;;
12088;SDS011;6107;49.078;8.578;2022-09-09T03:58:19;3.80;;;1.00;;
12088;SDS011;6107;49.078;8.578;2022-09-09T04:00:53;1.80;;;0.90;;
12088;SDS011;6107;49.078;8.578;2022-09-09T04:03:20;2.90;;;1.00;;
12088;SDS011;6107;49.078;8.578;2022-09-09T04:05:48;3.17;;;1.13;;
12088;SDS011;6107;49.078;8.578;2022-09-09T04:08:14;2.23;;;0.90;;
12088;SDS011;6107;49.078;8.578;2022-09-09T04:10:39;2.30;;;1.00;;
12088;SDS011;6107;49.078;8.578;2022-09-09T04:13:05;2.17;;;1.10;;
12088;SDS011;6107;49.078;8.578;2022-09-09T04:15:31;1.53;;;0.83;;
12088;SDS011;6107;49.078;8.578;2022-09-09T04:17:57;3.57;;;0.90;;
12088;SDS011;6107;49.078;8.578;2022-09-09T04:20:22;2.93;;;1.00;;
12088;SDS011;6107;49.078;8.578;2022-09-09T04:22:48;1.50;;;0.77;;
12088;SDS011;6107;49.078;8.578;2022-09-09T04:25:14;1.20;;;0.83;;
12088;SDS011;6107;49.078;8.578;2022-09-09T04:27:40;3.43;;;0.90;;
12088;SDS011;6107;49.078;8.578;2022-09-09T04:30:06;2.90;;;0.87;;
12088;SDS011;6107;49.078;8.578;2022-09-09T04:32:33;2.40;;;1.00;;
12088;SDS011;6107;49.078;8.578;2022-09-09T04:34:58;4.87;;;0.93;;
12088;SDS011;6107;49.078;8.578;2022-09-09T04:37:24;1.17;;;1.00;;
12088;SDS011;6107;49.078;8.578;2022-09-09T04:39:49;1.67;;;0.93;;
12088;SDS011;6107;49.078;8.578;2022-09-09T04:42:15;1.37;;;0.83;;
12088;SDS011;6107;49.078;8.578;2022-09-09T04:44:42;3.97;;;0.80;;
12088;SDS011;6107;49.078;8.578;2022-09-09T04:47:08;2.17;;;1.20;;
12088;SDS011;6107;49.078;8.578;2022-09-09T04:49:34;2.00;;;1.17;;
12088;SDS011;6107;49.078;8.578;2022-09-09T04:52:00;3.00;;;1.30;;
12088;SDS011;6107;49.078;8.578;2022-09-09T04:54:26;2.83;;;1.00;;
12088;SDS011;6107;49.078;8.578;2022-09-09T04:56:53;3.97;;;0.90;;
12088;SDS011;6107;49.078;8.578;2022-09-09T04:59:19;3.23;;;1.10;;
12088;SDS011;6107;49.078;8.578;2022-09-09T05:01:46;4.37;;;0.90;;
12088;SDS011;6107;49.078;8.578;2022-09-09T05:04:12;1.07;;;0.60;;
12088;SDS011;6107;49.078;8.578;2022-09-09T05:06:40;2.40;;;0.80;;
12088;SDS011;6107;49.078;8.578;2022-09-09T05:09:05;2.03;;;0.90;;
12088;SDS011;6107;49.078;8.578;2022-09-09T05:11:31;2.53;;;0.87;;
12088;SDS011;6107;49.078;8.578;2022-09-09T05:13:59;2.50;;;0.80;;
12088;SDS011;6107;49.078;8.578;2022-09-09T05:16:25;3.47;;;0.97;;
12088;SDS011;6107;49.078;8.578;2022-09-09T05:18:51;3.63;;;1.27;;
12088;SDS011;6107;49.078;8.578;2022-09-09T05:21:17;2.70;;;0.73;;
12088;SDS011;6107;49.078;8.578;2022-09-09T05:23:44;2.70;;;0.80;;
12088;SDS011;6107;49.078;8.578;2022-09-09T05:26:18;1.90;;;0.73;;
12088;SDS011;6107;49.078;8.578;2022-09-09T05:28:45;2.90;;;0.87;;
12088;SDS011;6107;49.078;8.578;2022-09-09T05:31:12;1.90;;;0.77;;
12088;SDS011;6107;49.078;8.578;2022-09-09T05:33:39;2.70;;;0.53;;
12088;SDS011;6107;49.078;8.578;2022-09-09T05:36:06;2.13;;;0.80;;
12088;SDS011;6107;49.078;8.578;2022-09-09T05:38:35;2.77;;;0.80;;
12088;SDS011;6107;49.078;8.578;2022-09-09T05:41:02;4.13;;;1.00;;
12088;SDS011;6107;49.078;8.578;2022-09-09T05:43:28;2.13;;;0.90;;
12088;SDS011;6107;49.078;8.578;2022-09-09T05:46:01;2.53;;;1.00;;
12088;SDS011;6107;49.078;8.578;2022-09-09T05:48:33;1.80;;;0.90;;
12088;SDS011;6107;49.078;8.578;2022-09-09T05:51:00;3.93;;;1.20;;
12088;SDS011;6107;49.078;8.578;2022-09-09T05:53:27;2.63;;;1.00;;
12088;SDS011;6107;49.078;8.578;2022-09-09T05:56:00;3.80;;;0.83;;
12088;SDS011;6107;49.078;8.578;2022-09-09T05:58:28;2.60;;;0.73;;
12088;SDS011;6107;49.078;8.578;2022-09-09T06:01:08;4.13;;;1.02;;
12088;SDS011;6107;49.078;8.578;2022-09-09T06:03:39;2.40;;;1.00;;
12088;SDS011;6107;49.078;8.578;2022-09-09T06:06:10;2.63;;;0.82;;
12088;SDS011;6107;49.078;8.578;2022-09-09T06:08:40;2.90;;;0.93;;
12088;SDS011;6107;49.078;8.578;2022-09-09T06:11:09;3.45;;;0.70;;
12088;SDS011;6107;49.078;8.578;2022-09-09T06:13:37;2.58;;;1.00;;
12088;SDS011;6107;49.078;8.578;2022-09-09T06:16:14;3.45;;;0.95;;
12088;SDS011;6107;49.078;8.578;2022-09-09T06:18:42;3.40;;;1.00;;
12088;SDS011;6107;49.078;8.578;2022-09-09T06:21:09;3.08;;;1.02;;
12088;SDS011;6107;49.078;8.578;2022-09-09T06:23:41;4.27;;;0.93;;
12088;SDS011;6107;49.078;8.578;2022-09-09T06:26:09;3.38;;;1.20;;
12088;SDS011;6107;49.078;8.578;2022-09-09T06:28:37;3.75;;;0.98;;
12088;SDS011;6107;49.078;8.578;2022-09-09T06:31:07;3.83;;;0.98;;
12088;SDS011;6107;49.078;8.578;2022-09-09T06:33:35;2.13;;;1.27;;
12088;SDS011;6107;49.078;8.578;2022-09-09T06:36:04;5.13;;;1.10;;
12088;SDS011;6107;49.078;8.578;2022-09-09T06:38:30;4.25;;;1.20;;
12088;SDS011;6107;49.078;8.578;2022-09-09T06:40:56;4.55;;;1.10;;
12088;SDS011;6107;49.078;8.578;2022-09-09T06:43:27;3.78;;;1.35;;
12088;SDS011;6107;49.078;8.578;2022-09-09T06:45:57;3.35;;;1.20;;
12088;SDS011;6107;49.078;8.578;2022-09-09T06:48:24;3.53;;;1.20;;
12088;SDS011;6107;49.078;8.578;2022-09-09T06:51:03;3.88;;;1.10;;
12088;SDS011;6107;49.078;8.578;2022-09-09T06:53:31;7.18;;;1.23;;
12088;SDS011;6107;49.078;8.578;2022-09-09T06:58:39;2.65;;;1.10;;
12088;SDS011;6107;49.078;8.578;2022-09-09T07:01:12;5.20;;;1.20;;
12088;SDS011;6107;49.078;8.578;2022-09-09T07:03:39;3.35;;;1.25;;
12088;SDS011;6107;49.078;8.578;2022-09-09T07:06:07;3.70;;;1.15;;
12088;SDS011;6107;49.078;8.578;2022-09-09T07:08:34;4.10;;;1.25;;
12088;SDS011;6107;49.078;8.578;2022-09-09T07:11:03;1.80;;;1.00;;
12088;SDS011;6107;49.078;8.578;2022-09-09T07:13:30;4.82;;;1.10;;
12088;SDS011;6107;49.078;8.578;2022-09-09T07:18:39;4.07;;;1.63;;
12088;SDS011;6107;49.078;8.578;2022-09-09T07:21:06;6.78;;;1.27;;
12088;SDS011;6107;49.078;8.578;2022-09-09T07:23:33;4.38;;;1.42;;
12088;SDS011;6107;49.078;8.578;2022-09-09T07:26:00;3.40;;;1.30;;
12088;SDS011;6107;49.078;8.578;2022-09-09T07:28:26;2.72;;;1.23;;
12088;SDS011;6107;49.078;8.578;2022-09-09T07:30:56;3.13;;;1.00;;
12088;SDS011;6107;49.078;8.578;2022-09-09T07:33:24;3.10;;;1.08;;
12088;SDS011;6107;49.078;8.578;2022-09-09T07:35:50;4.55;;;1.23;;
12088;SDS011;6107;49.078;8.578;2022-09-09T07:38:17;5.80;;;1.45;;
12088;SDS011;6107;49.078;8.578;2022-09-09T07:40:43;4.63;;;1.20;;
12088;SDS011;6107;49.078;8.578;2022-09-09T07:43:09;4.72;;;1.35;;
12088;SDS011;6107;49.078;8.578;2022-09-09T07:45:35;2.17;;;0.93;;
12088;SDS011;6107;49.078;8.578;2022-09-09T07:48:01;4.68;;;1.90;;
12088;SDS011;6107;49.078;8.578;2022-09-09T07:50:27;3.47;;;1.20;;
12088;SDS011;6107;49.078;8.578;2022-09-09T07:52:53;5.13;;;1.55;;
12088;SDS011;6107;49.078;8.578;2022-09-09T07:55:19;5.72;;;1.10;;
12088;SDS011;6107;49.078;8.578;2022-09-09T07:57:45;3.45;;;1.30;;
12088;SDS011;6107;49.078;8.578;2022-09-09T08:00:11;7.10;;;1.30;;
12088;SDS011;6107;49.078;8.578;2022-09-09T08:02:40;3.53;;;1.00;;
12088;SDS011;6107;49.078;8.578;2022-09-09T08:05:06;3.05;;;1.30;;
12088;SDS011;6107;49.078;8.578;2022-09-09T08:07:32;5.20;;;1.10;;
12088;SDS011;6107;49.078;8.578;2022-09-09T08:09:58;3.95;;;1.42;;
12088;SDS011;6107;49.078;8.578;2022-09-09T08:12:26;5.25;;;1.40;;
12088;SDS011;6107;49.078;8.578;2022-09-09T08:14:52;5.40;;;1.15;;
12088;SDS011;6107;49.078;8.578;2022-09-09T08:17:19;3.88;;;1.45;;
12088;SDS011;6107;49.078;8.578;2022-09-09T08:19:45;4.70;;;1.27;;
12088;SDS011;6107;49.078;8.578;2022-09-09T08:22:10;4.32;;;1.30;;
12088;SDS011;6107;49.078;8.578;2022-09-09T08:24:36;5.00;;;1.35;;
12088;SDS011;6107;49.078;8.578;2022-09-09T08:27:01;5.07;;;1.40;;
12088;SDS011;6107;49.078;8.578;2022-09-09T08:29:27;4.30;;;1.33;;
12088;SDS011;6107;49.078;8.578;2022-09-09T08:31:54;2.83;;;1.02;;
12088;SDS011;6107;49.078;8.578;2022-09-09T08:34:22;3.08;;;1.20;;
12088;SDS011;6107;49.078;8.578;2022-09-09T08:36:50;2.65;;;1.20;;
12088;SDS011;6107;49.078;8.578;2022-09-09T08:39:17;5.72;;;1.20;;
12088;SDS011;6107;49.078;8.578;2022-09-09T08:50:11;4.38;;;1.35;;
12088;SDS011;6107;49.078;8.578;2022-09-09T08:55:59;4.55;;;1.40;;
12088;SDS011;6107;49.078;8.578;2022-09-09T08:58:28;4.28;;;1.20;;
12088;SDS011;6107;49.078;8.578;2022-09-09T09:11:51;3.50;;;1.20;;
12088;SDS011;6107;49.078;8.578;2022-09-09T09:14:23;5.05;;;1.30;;
12088;SDS011;6107;49.078;8.578;2022-09-09T09:19:19;5.00;;;1.13;;
12088;SDS011;6107;49.078;8.578;2022-09-09T09:21:56;3.08;;;1.20;;
12088;SDS011;6107;49.078;8.578;2022-09-09T09:27:59;6.75;;;1.58;;
12088;SDS011;6107;49.078;8.578;2022-09-09T09:30:51;2.70;;;1.23;;
12088;SDS011;6107;49.078;8.578;2022-09-09T09:33:47;3.53;;;1.25;;
12088;SDS011;6107;49.078;8.578;2022-09-09T09:36:18;8.63;;;1.60;;
12088;SDS011;6107;49.078;8.578;2022-09-09T09:38:51;2.67;;;1.25;;
12088;SDS011;6107;49.078;8.578;2022-09-09T09:41:33;3.55;;;1.10;;
12088;SDS011;6107;49.078;8.578;2022-09-09T09:44:05;3.13;;;1.20;;
12088;SDS011;6107;49.078;8.578;2022-09-09T09:46:44;2.88;;;1.15;;
12088;SDS011;6107;49.078;8.578;2022-09-09T09:49:10;3.50;;;1.38;;
12088;SDS011;6107;49.078;8.578;2022-09-09T09:51:35;2.97;;;1.00;;
12088;SDS011;6107;49.078;8.578;2022-09-09T09:56:40;3.53;;;1.10;;
12088;SDS011;6107;49.078;8.578;2022-09-09T09:59:59;3.60;;;1.15;;
12088;SDS011;6107;49.078;8.578;2022-09-09T10:01:53;2.72;;;0.90;;
12088;SDS011;6107;49.078;8.578;2022-09-09T10:04:20;2.83;;;1.00;;
12088;SDS011;6107;49.078;8.578;2022-09-09T10:06:49;3.13;;;0.95;;
12088;SDS011;6107;49.078;8.578;2022-09-09T10:12:03;2.70;;;0.90;;
12088;SDS011;6107;49.078;8.578;2022-09-09T10:17:30;1.55;;;1.00;;
12088;SDS011;6107;49.078;8.578;2022-09-09T10:22:54;4.68;;;1.67;;
12088;SDS011;6107;49.078;8.578;2022-09-09T10:31:39;5.47;;;1.58;;
12088;SDS011;6107;49.078;8.578;2022-09-09T10:37:37;4.55;;;1.20;;
12088;SDS011;6107;49.078;8.578;2022-09-09T10:42:44;3.45;;;1.13;;
12088;SDS011;6107;49.078;8.578;2022-09-09T10:45:23;3.42;;;1.27;;
12088;SDS011;6107;49.078;8.578;2022-09-09T10:48:07;3.45;;;1.00;;
12088;SDS011;6107;49.078;8.578;2022-09-09T10:50:53;3.78;;;0.98;;
12088;SDS011;6107;49.078;8.578;2022-09-09T10:53:35;5.28;;;1.20;;
12088;SDS011;6107;49.078;8.578;2022-09-09T10:56:15;4.57;;;1.40;;
12088;SDS011;6107;49.078;8.578;2022-09-09T10:59:00;3.45;;;1.00;;
12088;SDS011;6107;49.078;8.578;2022-09-09T11:01:36;4.13;;;1.00;;
12088;SDS011;6107;49.078;8.578;2022-09-09T11:04:17;2.85;;;1.00;;
12088;SDS011;6107;49.078;8.578;2022-09-09T11:06:48;4.43;;;1.23;;
12088;SDS011;6107;49.078;8.578;2022-09-09T11:09:19;2.47;;;1.00;;
12088;SDS011;6107;49.078;8.578;2022-09-09T11:11:55;2.25;;;1.00;;
12088;SDS011;6107;49.078;8.578;2022-09-09T11:14:30;6.07;;;1.10;;
12088;SDS011;6107;49.078;8.578;2022-09-09T11:17:12;3.65;;;1.13;;
12088;SDS011;6107;49.078;8.578;2022-09-09T11:19:40;3.70;;;0.90;;
12088;SDS011;6107;49.078;8.578;2022-09-09T11:22:08;1.60;;;0.85;;
12088;SDS011;6107;49.078;8.578;2022-09-09T11:25:06;4.78;;;1.20;;
12088;SDS011;6107;49.078;8.578;2022-09-09T11:33:34;1.60;;;0.90;;
12088;SDS011;6107;49.078;8.578;2022-09-09T11:39:50;1.60;;;1.15;;
12088;SDS011;6107;49.078;8.578;2022-09-09T11:41:48;1.88;;;0.98;;
12088;SDS011;6107;49.078;8.578;2022-09-09T11:44:18;5.20;;;1.20;;
12088;SDS011;6107;49.078;8.578;2022-09-09T11:46:46;3.63;;;1.10;;
12088;SDS011;6107;49.078;8.578;2022-09-09T11:49:27;3.85;;;1.20;;
12088;SDS011;6107;49.078;8.578;2022-09-09T11:51:54;1.90;;;0.80;;
12088;SDS011;6107;49.078;8.578;2022-09-09T11:54:33;3.47;;;0.93;;
12088;SDS011;6107;49.078;8.578;2022-09-09T11:59:54;3.60;;;1.13;;
12088;SDS011;6107;49.078;8.578;2022-09-09T12:02:25;2.75;;;0.98;;
12088;SDS011;6107;49.078;8.578;2022-09-09T12:04:59;4.90;;;1.20;;
12088;SDS011;6107;49.078;8.578;2022-09-09T12:07:34;4.05;;;1.42;;
12088;SDS011;6107;49.078;8.578;2022-09-09T12:10:05;2.60;;;1.10;;
12088;SDS011;6107;49.078;8.578;2022-09-09T12:12:45;6.57;;;1.27;;
12088;SDS011;6107;49.078;8.578;2022-09-09T12:17:41;5.10;;;1.10;;
12088;SDS011;6107;49.078;8.578;2022-09-09T12:33:42;5.18;;;1.30;;
12088;SDS011;6107;49.078;8.578;2022-09-09T12:36:11;3.03;;;1.10;;
12088;SDS011;6107;49.078;8.578;2022-09-09T12:38:44;5.82;;;1.20;;
12088;SDS011;6107;49.078;8.578;2022-09-09T12:41:23;3.78;;;1.10;;
12088;SDS011;6107;49.078;8.578;2022-09-09T12:43:50;2.97;;;1.10;;
12088;SDS011;6107;49.078;8.578;2022-09-09T12:46:29;3.03;;;1.10;;
12088;SDS011;6107;49.078;8.578;2022-09-09T12:52:13;4.43;;;1.40;;
12088;SDS011;6107;49.078;8.578;2022-09-09T12:54:44;4.60;;;1.20;;
12088;SDS011;6107;49.078;8.578;2022-09-09T12:57:12;2.90;;;1.10;;
12088;SDS011;6107;49.078;8.578;2022-09-09T12:59:40;1.75;;;0.90;;
12088;SDS011;6107;49.078;8.578;2022-09-09T13:02:26;3.67;;;1.33;;
12088;SDS011;6107;49.078;8.578;2022-09-09T13:04:52;4.70;;;1.08;;
12088;SDS011;6107;49.078;8.578;2022-09-09T13:07:20;2.78;;;1.10;;
12088;SDS011;6107;49.078;8.578;2022-09-09T13:09:47;4.95;;;1.17;;
12088;SDS011;6107;49.078;8.578;2022-09-09T13:12:22;3.42;;;1.08;;
12088;SDS011;6107;49.078;8.578;2022-09-09T13:14:50;4.43;;;1.40;;
12088;SDS011;6107;49.078;8.578;2022-09-09T13:19:48;2.17;;;1.23;;
12088;SDS011;6107;49.078;8.578;2022-09-09T13:22:20;3.92;;;1.35;;
12088;SDS011;6107;49.078;8.578;2022-09-09T13:24:45;1.92;;;1.15;;
12088;SDS011;6107;49.078;8.578;2022-09-09T13:27:22;3.22;;;1.20;;
12088;SDS011;6107;49.078;8.578;2022-09-09T13:29:53;5.72;;;1.55;;
12088;SDS011;6107;49.078;8.578;2022-09-09T13:32:20;4.28;;;1.33;;
12088;SDS011;6107;49.078;8.578;2022-09-09T13:34:57;2.15;;;1.42;;
12088;SDS011;6107;49.078;8.578;2022-09-09T13:37:37;2.63;;;1.20;;
12088;SDS011;6107;49.078;8.578;2022-09-09T13:40:06;6.65;;;1.52;;
12088;SDS011;6107;49.078;8.578;2022-09-09T13:42:41;2.22;;;1.20;;
12088;SDS011;6107;49.078;8.578;2022-09-09T13:45:14;3.70;;;1.10;;
12088;SDS011;6107;49.078;8.578;2022-09-09T13:47:45;6.10;;;1.20;;
12088;SDS011;6107;49.078;8.578;2022-09-09T13:52:44;3.90;;;1.17;;
12088;SDS011;6107;49.078;8.578;2022-09-09T13:55:10;4.15;;;1.15;;
12088;SDS011;6107;49.078;8.578;2022-09-09T13:57:36;4.45;;;1.02;;
12088;SDS011;6107;49.078;8.578;2022-09-09T14:00:02;3.58;;;1.00;;
12088;SDS011;6107;49.078;8.578;2022-09-09T14:02:27;5.47;;;1.30;;
12088;SDS011;6107;49.078;8.578;2022-09-09T14:04:53;2.85;;;0.88;;
12088;SDS011;6107;49.078;8.578;2022-09-09T14:07:20;3.03;;;0.93;;
12088;SDS011;6107;49.078;8.578;2022-09-09T14:09:46;3.65;;;1.10;;
12088;SDS011;6107;49.078;8.578;2022-09-09T14:12:15;3.88;;;1.15;;
12088;SDS011;6107;49.078;8.578;2022-09-09T14:14:41;3.28;;;1.00;;
12088;SDS011;6107;49.078;8.578;2022-09-09T14:17:08;3.95;;;1.00;;
12088;SDS011;6107;49.078;8.578;2022-09-09T14:19:34;3.58;;;1.23;;
12088;SDS011;6107;49.078;8.578;2022-09-09T14:21:59;1.75;;;1.17;;
12088;SDS011;6107;49.078;8.578;2022-09-09T14:24:26;2.10;;;1.10;;
12088;SDS011;6107;49.078;8.578;2022-09-09T14:26:52;2.97;;;1.08;;
12088;SDS011;6107;49.078;8.578;2022-09-09T14:29:18;4.63;;;1.10;;
12088;SDS011;6107;49.078;8.578;2022-09-09T14:31:44;4.20;;;1.30;;
12088;SDS011;6107;49.078;8.578;2022-09-09T14:34:09;2.05;;;1.27;;
12088;SDS011;6107;49.078;8.578;2022-09-09T14:36:36;3.60;;;1.20;;
12088;SDS011;6107;49.078;8.578;2022-09-09T14:39:05;3.80;;;1.10;;
12088;SDS011;6107;49.078;8.578;2022-09-09T14:41:31;3.05;;;0.95;;
12088;SDS011;6107;49.078;8.578;2022-09-09T14:43:56;3.88;;;1.00;;
12088;SDS011;6107;49.078;8.578;2022-09-09T14:46:22;7.57;;;1.42;;
12088;SDS011;6107;49.078;8.578;2022-09-09T14:48:48;4.30;;;1.20;;
12088;SDS011;6107;49.078;8.578;2022-09-09T14:51:15;5.30;;;1.45;;
12088;SDS011;6107;49.078;8.578;2022-09-09T14:53:43;4.13;;;1.08;;
12088;SDS011;6107;49.078;8.578;2022-09-09T14:56:10;3.03;;;1.00;;
12088;SDS011;6107;49.078;8.578;2022-09-09T14:58:38;2.17;;;0.80;;
12088;SDS011;6107;49.078;8.578;2022-09-09T15:01:08;2.78;;;0.95;;
12088;SDS011;6107;49.078;8.578;2022-09-09T15:03:36;3.38;;;1.00;;
12088;SDS011;6107;49.078;8.578;2022-09-09T15:06:12;5.65;;;1.27;;
12088;SDS011;6107;49.078;8.578;2022-09-09T15:08:39;1.67;;;0.90;;
12088;SDS011;6107;49.078;8.578;2022-09-09T15:11:06;2.47;;;0.90;;
12088;SDS011;6107;49.078;8.578;2022-09-09T15:13:32;1.92;;;1.13;;
12088;SDS011;6107;49.078;8.578;2022-09-09T15:16:05;4.60;;;1.27;;
12088;SDS011;6107;49.078;8.578;2022-09-09T15:18:33;4.05;;;1.02;;
12088;SDS011;6107;49.078;8.578;2022-09-09T15:21:02;2.33;;;1.30;;
12088;SDS011;6107;49.078;8.578;2022-09-09T15:23:31;4.43;;;1.23;;
12088;SDS011;6107;49.078;8.578;2022-09-09T15:25:57;2.30;;;0.80;;
12088;SDS011;6107;49.078;8.578;2022-09-09T15:28:23;2.80;;;1.10;;
12088;SDS011;6107;49.078;8.578;2022-09-09T15:30:52;4.32;;;1.10;;
12088;SDS011;6107;49.078;8.578;2022-09-09T15:33:19;3.10;;;1.30;;
12088;SDS011;6107;49.078;8.578;2022-09-09T15:35:45;1.98;;;1.02;;
12088;SDS011;6107;49.078;8.578;2022-09-09T15:38:11;3.85;;;1.05;;
12088;SDS011;6107;49.078;8.578;2022-09-09T15:40:41;4.22;;;0.93;;
12088;SDS011;6107;49.078;8.578;2022-09-09T15:43:07;4.00;;;1.00;;
12088;SDS011;6107;49.078;8.578;2022-09-09T15:45:34;3.58;;;0.77;;
12088;SDS011;6107;49.078;8.578;2022-09-09T15:48:00;1.27;;;0.80;;
12088;SDS011;6107;49.078;8.578;2022-09-09T15:50:26;3.42;;;0.90;;
12088;SDS011;6107;49.078;8.578;2022-09-09T15:52:53;1.70;;;0.80;;
12088;SDS011;6107;49.078;8.578;2022-09-09T15:55:19;2.55;;;0.90;;
12088;SDS011;6107;49.078;8.578;2022-09-09T15:57:45;2.10;;;1.25;;
12088;SDS011;6107;49.078;8.578;2022-09-09T16:00:11;2.72;;;1.00;;
12088;SDS011;6107;49.078;8.578;2022-09-09T16:02:38;2.30;;;0.90;;
12088;SDS011;6107;49.078;8.578;2022-09-09T16:05:03;3.10;;;1.10;;
12088;SDS011;6107;49.078;8.578;2022-09-09T16:07:29;5.43;;;0.85;;
12088;SDS011;6107;49.078;8.578;2022-09-09T16:09:55;1.35;;;0.80;;
12088;SDS011;6107;49.078;8.578;2022-09-09T16:12:20;2.28;;;0.88;;
12088;SDS011;6107;49.078;8.578;2022-09-09T16:14:46;1.65;;;0.90;;
12088;SDS011;6107;49.078;8.578;2022-09-09T16:17:12;2.00;;;1.02;;
12088;SDS011;6107;49.078;8.578;2022-09-09T16:19:49;3.03;;;1.38;;
12088;SDS011;6107;49.078;8.578;2022-09-09T16:22:15;4.15;;;0.98;;
12088;SDS011;6107;49.078;8.578;2022-09-09T16:24:40;6.00;;;1.50;;
12088;SDS011;6107;49.078;8.578;2022-09-09T16:27:06;2.63;;;0.90;;
12088;SDS011;6107;49.078;8.578;2022-09-09T16:29:32;5.95;;;1.00;;
12088;SDS011;6107;49.078;8.578;2022-09-09T16:31:57;5.28;;;1.00;;
12088;SDS011;6107;49.078;8.578;2022-09-09T16:34:24;2.80;;;0.75;;
12088;SDS011;6107;49.078;8.578;2022-09-09T16:36:50;1.65;;;1.00;;
12088;SDS011;6107;49.078;8.578;2022-09-09T16:39:17;2.65;;;0.75;;
12088;SDS011;6107;49.078;8.578;2022-09-09T16:41:45;2.08;;;0.90;;
12088;SDS011;6107;49.078;8.578;2022-09-09T16:44:13;1.70;;;1.27;;
12088;SDS011;6107;49.078;8.578;2022-09-09T16:46:44;3.03;;;1.10;;
12088;SDS011;6107;49.078;8.578;2022-09-09T16:49:11;2.90;;;1.08;;
12088;SDS011;6107;49.078;8.578;2022-09-09T16:51:39;2.70;;;1.00;;
12088;SDS011;6107;49.078;8.578;2022-09-09T16:54:07;3.63;;;0.85;;
12088;SDS011;6107;49.078;8.578;2022-09-09T16:56:34;2.28;;;1.20;;
12088;SDS011;6107;49.078;8.578;2022-09-09T16:59:19;1.80;;;1.10;;
12088;SDS011;6107;49.078;8.578;2022-09-09T17:01:47;3.05;;;1.00;;
12088;SDS011;6107;49.078;8.578;2022-09-09T17:04:18;2.38;;;0.85;;
12088;SDS011;6107;49.078;8.578;2022-09-09T17:06:48;2.33;;;0.90;;
12088;SDS011;6107;49.078;8.578;2022-09-09T17:09:15;2.30;;;0.95;;
12088;SDS011;6107;49.078;8.578;2022-09-09T17:11:42;2.35;;;1.27;;
12088;SDS011;6107;49.078;8.578;2022-09-09T17:14:09;1.95;;;1.02;;
12088;SDS011;6107;49.078;8.578;2022-09-09T17:16:38;5.07;;;1.20;;
12088;SDS011;6107;49.078;8.578;2022-09-09T17:19:05;2.53;;;1.00;;
12088;SDS011;6107;49.078;8.578;2022-09-09T17:21:33;2.35;;;1.10;;
12088;SDS011;6107;49.078;8.578;2022-09-09T17:23:58;3.13;;;1.05;;
12088;SDS011;6107;49.078;8.578;2022-09-09T17:26:26;2.45;;;1.00;;
12088;SDS011;6107;49.078;8.578;2022-09-09T17:28:53;3.67;;;1.13;;